Time;durP1;ratioP1;P1;durP2;ratioP2;P2;SDS_P1;SDS_P2;PMS_P1;PMS_P2;Temp;Humidity;BMP_temperature;BMP_pressure;BME280_temperature;BME280_humidity;BME280_pressure;Samples;Min_cycle;Max_cycle;Signal;HPM_P1;HPM_P2
2022/01/22 00:00:58;;;;;;;;;;;6.60;99.90;;;;;;2075316;28;19991;-71
2022/01/22 00:01:58;;;;;;;;;;;6.60;99.90;;;;;;2075487;28;20575;-71
2022/01/22 00:02:59;;;;;;;;;;;6.60;99.90;;;;;;2080659;28;19967;-71
2022/01/22 00:03:59;;;;;;;;;;;6.50;99.90;;;;;;2079733;28;19918;-71
2022/01/22 00:04:59;;;;;;;;;;;6.50;99.90;;;;;;2080300;28;19992;-71
2022/01/22 00:06:00;;;;;;;;;;;6.50;99.90;;;;;;2080542;28;19947;-71
2022/01/22 00:07:02;;;;;;;;;;;6.50;99.90;;;;;;2080610;28;19956;-71
2022/01/22 00:08:03;;;;;;;;;;;6.50;99.90;;;;;;2080373;28;19909;-71
2022/01/22 00:09:04;;;;;;;;;;;6.50;99.90;;;;;;2080514;28;19913;-71
2022/01/22 00:10:07;;;;;;;;;;;6.50;99.90;;;;;;2080124;28;20008;-72
2022/01/22 00:11:08;;;;;;;;;;;6.50;99.90;;;;;;2080618;28;19913;-71
2022/01/22 00:12:13;;;;;;;;;;;6.50;99.90;;;;;;2080474;28;19909;-71
2022/01/22 00:14:24;;;;;;;;;;;6.50;99.90;;;;;;2080143;28;19978;-71
2022/01/22 00:15:25;;;;;;;;;;;6.50;99.90;;;;;;2079981;28;19913;-72
2022/01/22 00:16:25;;;;;;;;;;;6.50;99.90;;;;;;2080311;28;19909;-72
2022/01/22 00:17:26;;;;;;;;;;;6.50;99.90;;;;;;2080761;28;19916;-72
2022/01/22 00:18:26;;;;;;;;;;;6.50;99.90;;;;;;2080069;28;19920;-72
2022/01/22 00:19:27;;;;;;;;;;;6.50;99.90;;;;;;2080549;28;20272;-71
2022/01/22 00:20:29;;;;;;;;;;;6.50;99.90;;;;;;2080010;28;19913;-71
2022/01/22 00:21:29;;;;;;;;;;;6.50;99.90;;;;;;2080552;28;19909;-71
2022/01/22 00:22:32;;;;;;;;;;;6.50;99.90;;;;;;2080761;28;19968;-72
2022/01/22 00:23:33;;;;;;;;;;;6.50;99.90;;;;;;2080384;28;20363;-72
2022/01/22 00:24:38;;;;;;;;;;;6.50;99.90;;;;;;2080426;28;19917;-71
2022/01/22 00:25:38;;;;;;;;;;;6.50;99.90;;;;;;2080431;28;19909;-71
2022/01/22 00:26:40;;;;;;;;;;;6.50;99.90;;;;;;2080390;28;19913;-71
2022/01/22 00:27:41;;;;;;;;;;;6.50;99.90;;;;;;2080320;28;19916;-71
2022/01/22 00:28:42;;;;;;;;;;;6.50;99.90;;;;;;2080849;28;19909;-72
2022/01/22 00:29:42;;;;;;;;;;;6.50;99.90;;;;;;2079500;28;19917;-72
2022/01/22 00:30:43;;;;;;;;;;;6.50;99.90;;;;;;2080533;28;19909;-71
2022/01/22 00:31:43;;;;;;;;;;;6.50;99.90;;;;;;2079773;28;19913;-72
2022/01/22 00:32:44;;;;;;;;;;;6.50;99.90;;;;;;2079866;28;19917;-72
2022/01/22 00:33:45;;;;;;;;;;;6.50;99.90;;;;;;2080251;28;19913;-72
2022/01/22 00:34:45;;;;;;;;;;;6.50;99.90;;;;;;2080355;28;20341;-72
2022/01/22 00:35:46;;;;;;;;;;;6.50;99.90;;;;;;2079768;28;19940;-72
2022/01/22 00:36:46;;;;;;;;;;;6.50;99.90;;;;;;2079846;28;19956;-71
2022/01/22 00:37:47;;;;;;;;;;;6.50;99.90;;;;;;2080065;28;19909;-71
2022/01/22 00:38:48;;;;;;;;;;;6.50;99.90;;;;;;2080353;28;19924;-72
2022/01/22 00:39:48;;;;;;;;;;;6.50;99.90;;;;;;2079283;28;19924;-71
2022/01/22 00:40:50;;;;;;;;;;;6.50;99.90;;;;;;2080449;28;19909;-71
2022/01/22 00:41:50;;;;;;;;;;;6.50;99.90;;;;;;2079805;28;19909;-72
2022/01/22 00:42:51;;;;;;;;;;;6.50;99.90;;;;;;2080126;28;19963;-72
2022/01/22 00:43:53;;;;;;;;;;;6.50;99.90;;;;;;2080000;28;20369;-71
2022/01/22 00:44:54;;;;;;;;;;;6.50;99.90;;;;;;2080617;28;19909;-71
2022/01/22 00:45:54;;;;;;;;;;;6.50;99.90;;;;;;2079488;28;19917;-71
2022/01/22 00:46:55;;;;;;;;;;;6.50;99.90;;;;;;2079626;28;19935;-71
2022/01/22 00:47:55;;;;;;;;;;;6.40;99.90;;;;;;2079651;28;20050;-71
2022/01/22 00:48:56;;;;;;;;;;;6.40;99.90;;;;;;2087960;28;19909;-71
2022/01/22 00:49:56;;;;;;;;;;;6.50;99.90;;;;;;2086168;28;19952;-71
2022/01/22 00:50:57;;;;;;;;;;;6.40;99.90;;;;;;2085988;28;19909;-71
2022/01/22 00:51:58;;;;;;;;;;;6.40;99.90;;;;;;2087613;28;19912;-71
2022/01/22 00:52:58;;;;;;;;;;;6.40;99.90;;;;;;2086371;28;20378;-71
2022/01/22 00:53:59;;;;;;;;;;;6.40;99.90;;;;;;2083729;28;19909;-71
2022/01/22 00:54:59;;;;;;;;;;;6.40;99.90;;;;;;2072123;28;19914;-72
2022/01/22 00:56:00;;;;;;;;;;;6.40;99.90;;;;;;2079297;28;19913;-71
2022/01/22 00:57:00;;;;;;;;;;;6.40;99.90;;;;;;2079461;28;19925;-71
2022/01/22 00:58:01;;;;;;;;;;;6.40;99.90;;;;;;2078941;28;19955;-71
2022/01/22 00:59:01;;;;;;;;;;;6.40;99.90;;;;;;2075670;28;19936;-72
2022/01/22 01:00:04;;;;;;;;;;;6.40;99.90;;;;;;2077543;28;19924;-72
2022/01/22 01:01:05;;;;;;;;;;;6.40;99.90;;;;;;2080221;28;19913;-71
2022/01/22 01:02:05;;;;;;;;;;;6.50;99.90;;;;;;2080199;28;19916;-72
2022/01/22 01:03:05;;;;;;;;;;;6.50;99.90;;;;;;2080048;28;20272;-71
2022/01/22 01:04:08;;;;;;;;;;;6.40;99.90;;;;;;2080414;28;20262;-72
2022/01/22 01:05:10;;;;;;;;;;;6.50;99.90;;;;;;2087221;28;19913;-71
2022/01/22 01:06:10;;;;;;;;;;;6.40;99.90;;;;;;2082782;28;20192;-72
2022/01/22 01:07:11;;;;;;;;;;;6.40;99.90;;;;;;2077413;28;19917;-72
2022/01/22 01:08:11;;;;;;;;;;;6.50;99.90;;;;;;2080241;28;19949;-72
2022/01/22 01:09:12;;;;;;;;;;;6.50;99.90;;;;;;2079879;28;20435;-72
2022/01/22 01:10:15;;;;;;;;;;;6.40;99.90;;;;;;2079644;28;19963;-72
2022/01/22 01:11:16;;;;;;;;;;;6.40;99.90;;;;;;2078847;28;20306;-71
2022/01/22 01:12:17;;;;;;;;;;;6.50;99.90;;;;;;2078627;28;19940;-72
2022/01/22 01:13:17;;;;;;;;;;;6.40;99.90;;;;;;2074374;28;19910;-72
2022/01/22 01:14:25;;;;;;;;;;;6.40;99.90;;;;;;2076240;28;19913;-72
2022/01/22 01:15:55;;;;;;;;;;;6.50;99.90;;;;;;2078777;28;19913;-72
2022/01/22 01:32:54;;;;;;;;;;;6.50;99.90;;;;;;2080415;28;19909;-72
2022/01/22 01:34:03;;;;;;;;;;;6.50;99.90;;;;;;2079856;28;19913;-72
2022/01/22 01:35:06;;;;;;;;;;;6.50;99.90;;;;;;2080174;28;19917;-72
2022/01/22 01:36:07;;;;;;;;;;;6.40;99.90;;;;;;2076713;28;19956;-72
2022/01/22 01:37:16;;;;;;;;;;;6.50;99.90;;;;;;2079734;28;19913;-72
2022/01/22 01:38:20;;;;;;;;;;;6.40;99.90;;;;;;2077223;28;19956;-72
2022/01/22 01:39:31;;;;;;;;;;;6.40;99.90;;;;;;2080204;28;20293;-72
2022/01/22 01:40:34;;;;;;;;;;;6.40;99.90;;;;;;2077800;28;19917;-72
2022/01/22 01:42:45;;;;;;;;;;;6.40;99.90;;;;;;2078396;28;20000;-72
2022/01/22 01:43:46;;;;;;;;;;;6.40;99.90;;;;;;2071912;28;19967;-72
2022/01/22 01:44:46;;;;;;;;;;;6.40;99.90;;;;;;2078153;28;19941;-72
2022/01/22 01:45:47;;;;;;;;;;;6.50;99.90;;;;;;2080011;28;19948;-72
2022/01/22 01:46:53;;;;;;;;;;;6.40;99.90;;;;;;2079968;28;19909;-72
2022/01/22 01:47:54;;;;;;;;;;;6.40;99.90;;;;;;2080038;28;19920;-72
2022/01/22 01:48:55;;;;;;;;;;;6.40;99.90;;;;;;2079978;28;19963;-72
2022/01/22 01:49:55;;;;;;;;;;;6.40;99.90;;;;;;2078861;28;19909;-72
2022/01/22 01:50:58;;;;;;;;;;;6.40;99.90;;;;;;2079109;28;19987;-72
2022/01/22 01:52:01;;;;;;;;;;;6.40;99.90;;;;;;2080179;28;19916;-72
2022/01/22 01:53:19;;;;;;;;;;;6.40;99.90;;;;;;2079117;28;19988;-72
2022/01/22 01:58:18;;;;;;;;;;;6.30;99.90;;;;;;2080331;28;19913;-72
2022/01/22 01:59:18;;;;;;;;;;;6.30;99.90;;;;;;2079672;28;20735;-72
2022/01/22 02:00:23;;;;;;;;;;;6.30;99.90;;;;;;2078084;28;19909;-72
2022/01/22 02:01:23;;;;;;;;;;;6.30;99.90;;;;;;2071720;28;19909;-72
2022/01/22 02:02:26;;;;;;;;;;;6.30;99.90;;;;;;2076191;28;19913;-72
2022/01/22 02:03:26;;;;;;;;;;;6.30;99.90;;;;;;2079911;28;19909;-72
2022/01/22 02:04:26;;;;;;;;;;;6.30;99.90;;;;;;2079590;28;19944;-72
2022/01/22 02:05:27;;;;;;;;;;;6.30;99.90;;;;;;2080948;28;19917;-72
2022/01/22 02:06:27;;;;;;;;;;;6.30;99.90;;;;;;2081451;28;19914;-72
2022/01/22 02:07:28;;;;;;;;;;;6.30;99.90;;;;;;2081441;28;19915;-71
2022/01/22 02:08:29;;;;;;;;;;;6.40;99.90;;;;;;2081613;28;19913;-72
2022/01/22 02:09:29;;;;;;;;;;;6.30;99.90;;;;;;2077578;28;20380;-72
2022/01/22 02:10:33;;;;;;;;;;;6.40;99.90;;;;;;2080489;28;19958;-72
2022/01/22 02:11:34;;;;;;;;;;;6.40;99.90;;;;;;2081320;28;19913;-72
2022/01/22 02:24:52;;;;;;;;;;;6.30;99.90;;;;;;2067763;28;19918;-72
2022/01/22 02:25:56;;;;;;;;;;;6.30;99.90;;;;;;2073603;28;19913;-72
2022/01/22 02:26:57;;;;;;;;;;;6.30;99.90;;;;;;2073714;28;19956;-72
2022/01/22 02:27:59;;;;;;;;;;;6.30;99.90;;;;;;2073442;28;20405;-72
2022/01/22 02:29:00;;;;;;;;;;;6.30;99.90;;;;;;2073817;28;20007;-72
2022/01/22 02:30:01;;;;;;;;;;;6.30;99.90;;;;;;2073438;28;19913;-73
2022/01/22 02:31:11;;;;;;;;;;;6.30;99.90;;;;;;2075217;28;19913;-72
2022/01/22 02:33:36;;;;;;;;;;;6.40;99.90;;;;;;2079367;28;19909;-72
2022/01/22 02:34:48;;;;;;;;;;;6.40;99.90;;;;;;2081841;28;19920;-72
2022/01/22 02:35:54;;;;;;;;;;;6.40;99.90;;;;;;2081812;28;19968;-72
2022/01/22 02:38:03;;;;;;;;;;;6.40;99.90;;;;;;2090236;28;19951;-72
2022/01/22 02:39:19;;;;;;;;;;;6.40;99.90;;;;;;2082658;28;19923;-72
2022/01/22 02:40:27;;;;;;;;;;;6.40;99.90;;;;;;2082645;28;19948;-72
2022/01/22 02:41:27;;;;;;;;;;;6.40;99.90;;;;;;2083087;28;19944;-72
2022/01/22 02:42:31;;;;;;;;;;;6.40;99.90;;;;;;2082487;28;19921;-72
2022/01/22 02:43:32;;;;;;;;;;;6.40;99.90;;;;;;2082903;28;19910;-72
2022/01/22 02:44:35;;;;;;;;;;;6.40;99.90;;;;;;2089086;28;19908;-72
2022/01/22 02:45:35;;;;;;;;;;;6.40;99.90;;;;;;2088085;28;19909;-72
2022/01/22 02:46:38;;;;;;;;;;;6.40;99.90;;;;;;2081441;28;19920;-72
2022/01/22 02:47:39;;;;;;;;;;;6.40;99.90;;;;;;2083300;28;20332;-72
2022/01/22 02:48:39;;;;;;;;;;;6.40;99.90;;;;;;2082250;28;19932;-72
2022/01/22 02:49:39;;;;;;;;;;;6.40;99.90;;;;;;2082802;28;19909;-72
2022/01/22 02:50:40;;;;;;;;;;;6.50;99.90;;;;;;2082120;28;20332;-72
2022/01/22 02:51:41;;;;;;;;;;;6.40;99.90;;;;;;2082855;28;19913;-72
2022/01/22 02:52:41;;;;;;;;;;;6.40;99.90;;;;;;2081222;28;19955;-72
2022/01/22 02:53:42;;;;;;;;;;;6.40;99.90;;;;;;2082783;28;20384;-72
2022/01/22 02:54:42;;;;;;;;;;;6.40;99.90;;;;;;2082787;28;19959;-72
2022/01/22 02:55:45;;;;;;;;;;;6.40;99.90;;;;;;2082832;28;20296;-72
2022/01/22 02:56:45;;;;;;;;;;;6.40;99.90;;;;;;2082789;28;19909;-72
2022/01/22 02:57:46;;;;;;;;;;;6.40;99.90;;;;;;2082991;28;19910;-72
2022/01/22 02:58:46;;;;;;;;;;;6.50;99.90;;;;;;2082485;28;19917;-72
2022/01/22 02:59:47;;;;;;;;;;;6.40;99.90;;;;;;2081079;28;19964;-72
2022/01/22 03:00:47;;;;;;;;;;;6.40;99.90;;;;;;2082604;28;20014;-72
2022/01/22 03:01:48;;;;;;;;;;;6.40;99.90;;;;;;2082178;28;20288;-72
2022/01/22 03:02:50;;;;;;;;;;;6.40;99.90;;;;;;2082029;28;19949;-72
2022/01/22 03:03:51;;;;;;;;;;;6.40;99.90;;;;;;2082164;28;19920;-72
2022/01/22 03:04:51;;;;;;;;;;;6.40;99.90;;;;;;2082653;28;19967;-72
2022/01/22 03:05:52;;;;;;;;;;;6.40;99.90;;;;;;2082654;28;19917;-72
2022/01/22 03:06:52;;;;;;;;;;;6.50;99.90;;;;;;2081952;28;19929;-72
2022/01/22 03:07:55;;;;;;;;;;;6.40;99.90;;;;;;2081846;28;19952;-72
2022/01/22 03:08:55;;;;;;;;;;;6.40;99.90;;;;;;2081813;28;19916;-72
2022/01/22 03:10:01;;;;;;;;;;;6.40;99.90;;;;;;2082426;28;19916;-72
2022/01/22 03:11:06;;;;;;;;;;;6.40;99.90;;;;;;2082538;28;19972;-73
2022/01/22 03:19:10;;;;;;;;;;;6.50;99.90;;;;;;2082710;28;19913;-72
2022/01/22 03:22:25;;;;;;;;;;;6.50;99.90;;;;;;2082610;28;19944;-72
2022/01/22 03:27:25;;;;;;;;;;;6.50;99.90;;;;;;2082500;28;20626;-72
2022/01/22 03:28:29;;;;;;;;;;;6.50;99.90;;;;;;2082457;28;19909;-72
2022/01/22 03:29:40;;;;;;;;;;;6.50;99.90;;;;;;2080923;28;19932;-72
2022/01/22 03:30:41;;;;;;;;;;;6.50;99.90;;;;;;2081804;28;19940;-72
2022/01/22 03:31:42;;;;;;;;;;;6.50;99.90;;;;;;2081091;28;19913;-72
2022/01/22 03:32:47;;;;;;;;;;;6.50;99.90;;;;;;2077715;28;19920;-72
2022/01/22 03:33:47;;;;;;;;;;;6.50;99.90;;;;;;2085265;28;19912;-72
2022/01/22 03:34:56;;;;;;;;;;;6.50;99.90;;;;;;2085819;28;19923;-72
2022/01/22 03:35:59;;;;;;;;;;;6.50;99.90;;;;;;2084693;28;19952;-72
2022/01/22 03:36:59;;;;;;;;;;;6.50;99.90;;;;;;2082449;28;20016;-72
2022/01/22 03:38:00;;;;;;;;;;;6.50;99.90;;;;;;2082359;28;19916;-72
2022/01/22 03:39:01;;;;;;;;;;;6.50;99.90;;;;;;2082558;28;19917;-72
2022/01/22 03:40:03;;;;;;;;;;;6.50;99.90;;;;;;2082151;28;19909;-72
2022/01/22 03:41:03;;;;;;;;;;;6.50;99.90;;;;;;2082379;28;19913;-72
2022/01/22 03:42:04;;;;;;;;;;;6.50;99.90;;;;;;2082317;28;20401;-72
2022/01/22 03:43:04;;;;;;;;;;;6.50;99.90;;;;;;2082269;28;19917;-72
2022/01/22 03:44:06;;;;;;;;;;;6.50;99.90;;;;;;2082232;28;20300;-72
2022/01/22 03:45:07;;;;;;;;;;;6.50;99.90;;;;;;2082748;28;19910;-72
2022/01/22 03:46:08;;;;;;;;;;;6.50;99.90;;;;;;2089561;28;19924;-72
2022/01/22 03:47:08;;;;;;;;;;;6.50;99.90;;;;;;2089972;28;19948;-72
2022/01/22 03:48:09;;;;;;;;;;;6.50;99.90;;;;;;2082506;28;19916;-72
2022/01/22 03:49:10;;;;;;;;;;;6.50;99.90;;;;;;2082202;28;19909;-72
2022/01/22 03:50:12;;;;;;;;;;;6.50;99.90;;;;;;2082153;28;19913;-72
2022/01/22 03:51:12;;;;;;;;;;;6.50;99.90;;;;;;2082345;28;19952;-72
2022/01/22 03:52:13;;;;;;;;;;;6.50;99.90;;;;;;2081718;28;19913;-72
2022/01/22 03:53:13;;;;;;;;;;;6.50;99.90;;;;;;2081462;28;19955;-72
2022/01/22 03:54:13;;;;;;;;;;;6.50;99.90;;;;;;2082296;28;19941;-72
2022/01/22 03:55:29;;;;;;;;;;;6.50;99.90;;;;;;2082225;28;19909;-72
2022/01/22 03:56:30;;;;;;;;;;;6.50;99.90;;;;;;2082171;28;19976;-72
2022/01/22 03:57:30;;;;;;;;;;;6.50;99.90;;;;;;2081117;28;20082;-72
2022/01/22 03:58:32;;;;;;;;;;;6.50;99.90;;;;;;2078764;28;20016;-72
2022/01/22 03:59:32;;;;;;;;;;;6.50;99.90;;;;;;2088028;28;19992;-72
2022/01/22 04:00:33;;;;;;;;;;;6.50;99.90;;;;;;2089709;28;20377;-72
2022/01/22 04:02:03;;;;;;;;;;;6.50;99.90;;;;;;2082381;28;19913;-72
2022/01/22 04:04:17;;;;;;;;;;;6.50;99.90;;;;;;2081166;28;19917;-72
2022/01/22 04:05:18;;;;;;;;;;;6.50;99.90;;;;;;2080843;28;19959;-72
2022/01/22 04:07:01;;;;;;;;;;;6.50;99.90;;;;;;2081627;28;19963;-72
2022/01/22 04:08:11;;;;;;;;;;;6.50;99.90;;;;;;2080352;28;19960;-72
2022/01/22 04:09:15;;;;;;;;;;;6.50;99.90;;;;;;2079365;28;20068;-72
2022/01/22 04:10:17;;;;;;;;;;;6.50;99.90;;;;;;2079713;28;20369;-72
2022/01/22 04:11:18;;;;;;;;;;;6.50;99.90;;;;;;2080745;28;19924;-72
2022/01/22 04:12:25;;;;;;;;;;;6.60;99.90;;;;;;2080935;28;19916;-72
2022/01/22 04:13:32;;;;;;;;;;;6.60;99.90;;;;;;2080596;28;20323;-72
2022/01/22 04:14:35;;;;;;;;;;;6.60;99.90;;;;;;2080605;28;20301;-73
2022/01/22 04:15:39;;;;;;;;;;;6.50;99.90;;;;;;2080623;28;20346;-72
2022/01/22 04:16:47;;;;;;;;;;;6.60;99.90;;;;;;2080840;28;19916;-72
2022/01/22 04:25:48;;;;;;;;;;;6.60;99.90;;;;;;2080366;28;20369;-72
2022/01/22 04:27:07;;;;;;;;;;;6.60;99.90;;;;;;2080645;28;19909;-72
2022/01/22 04:28:08;;;;;;;;;;;6.60;99.90;;;;;;2075248;28;20246;-72
2022/01/22 04:29:08;;;;;;;;;;;6.60;99.90;;;;;;2080677;28;19936;-72
2022/01/22 04:30:09;;;;;;;;;;;6.60;99.90;;;;;;2079892;28;19931;-72
2022/01/22 04:31:09;;;;;;;;;;;6.60;99.90;;;;;;2080218;28;19999;-72
2022/01/22 04:32:10;;;;;;;;;;;6.60;99.90;;;;;;2080470;28;20375;-72
2022/01/22 04:33:10;;;;;;;;;;;6.60;99.90;;;;;;2080426;28;19971;-72
2022/01/22 04:34:11;;;;;;;;;;;6.60;99.90;;;;;;2079640;28;19913;-73
2022/01/22 04:35:11;;;;;;;;;;;6.60;99.90;;;;;;2075031;28;20330;-72
2022/01/22 04:36:12;;;;;;;;;;;6.60;99.90;;;;;;2080431;28;19909;-72
2022/01/22 04:37:13;;;;;;;;;;;6.60;99.90;;;;;;2080219;28;20277;-72
2022/01/22 04:38:13;;;;;;;;;;;6.60;99.90;;;;;;2080610;28;19920;-72
2022/01/22 04:39:14;;;;;;;;;;;6.70;99.90;;;;;;2080457;28;19913;-72
2022/01/22 04:40:16;;;;;;;;;;;6.60;99.90;;;;;;2080036;28;19915;-72
2022/01/22 04:41:17;;;;;;;;;;;6.60;99.90;;;;;;2080352;28;19917;-72
2022/01/22 04:42:18;;;;;;;;;;;6.70;99.90;;;;;;2080351;28;19914;-72
2022/01/22 04:43:20;;;;;;;;;;;6.70;99.90;;;;;;2078037;28;19963;-73
2022/01/22 04:44:21;;;;;;;;;;;6.70;99.90;;;;;;2081105;28;19963;-72
2022/01/22 04:45:43;;;;;;;;;;;6.70;99.90;;;;;;2080354;28;20365;-72
2022/01/22 04:48:12;;;;;;;;;;;6.70;99.90;;;;;;2079075;28;19917;-72
2022/01/22 04:55:23;;;;;;;;;;;6.70;99.90;;;;;;2080586;28;20016;-72
2022/01/22 04:56:24;;;;;;;;;;;6.70;99.90;;;;;;2080354;28;19917;-72
2022/01/22 04:57:25;;;;;;;;;;;6.70;99.90;;;;;;2075607;28;19913;-72
2022/01/22 04:58:25;;;;;;;;;;;6.70;99.90;;;;;;2087788;28;19923;-72
2022/01/22 04:59:26;;;;;;;;;;;6.70;99.90;;;;;;2086965;28;19914;-72
2022/01/22 05:00:26;;;;;;;;;;;6.70;99.90;;;;;;2074514;28;20369;-72
2022/01/22 05:01:26;;;;;;;;;;;6.70;99.90;;;;;;2080163;28;19910;-72
2022/01/22 05:02:27;;;;;;;;;;;6.70;99.90;;;;;;2080179;28;19970;-72
2022/01/22 05:03:27;;;;;;;;;;;6.70;99.90;;;;;;2080407;28;19921;-72
2022/01/22 05:04:28;;;;;;;;;;;6.70;99.90;;;;;;2080259;28;19935;-72
2022/01/22 05:05:29;;;;;;;;;;;6.70;99.90;;;;;;2080336;28;19921;-72
2022/01/22 05:06:30;;;;;;;;;;;6.70;99.90;;;;;;2081006;28;19963;-72
2022/01/22 05:07:30;;;;;;;;;;;6.70;99.90;;;;;;2081056;28;20385;-72
2022/01/22 05:08:31;;;;;;;;;;;6.70;99.90;;;;;;2073469;28;20012;-72
2022/01/22 05:09:31;;;;;;;;;;;6.70;99.90;;;;;;2081938;28;19955;-72
2022/01/22 05:10:32;;;;;;;;;;;6.70;99.90;;;;;;2081483;28;20344;-72
2022/01/22 05:11:32;;;;;;;;;;;6.70;99.90;;;;;;2081136;28;19909;-72
2022/01/22 05:12:32;;;;;;;;;;;6.70;99.90;;;;;;2081039;28;19916;-72
2022/01/22 05:13:33;;;;;;;;;;;6.70;99.90;;;;;;2081975;28;19910;-72
2022/01/22 05:14:33;;;;;;;;;;;6.70;99.90;;;;;;2081011;28;20010;-73
2022/01/22 05:15:34;;;;;;;;;;;6.70;99.90;;;;;;2085597;28;20430;-72
2022/01/22 05:16:34;;;;;;;;;;;6.70;99.90;;;;;;2084032;28;19991;-72
2022/01/22 05:17:38;;;;;;;;;;;6.70;99.90;;;;;;2081150;28;19936;-72
2022/01/22 05:18:48;;;;;;;;;;;6.70;99.90;;;;;;2081567;28;20031;-72
2022/01/22 05:20:05;;;;;;;;;;;6.70;99.90;;;;;;2081918;28;20348;-72
2022/01/22 05:21:10;;;;;;;;;;;6.70;99.90;;;;;;2073789;28;19909;-72
2022/01/22 05:23:32;;;;;;;;;;;6.70;99.90;;;;;;2069190;28;19918;-72
2022/01/22 05:24:35;;;;;;;;;;;6.70;99.90;;;;;;2079790;28;20316;-72
2022/01/22 05:25:43;;;;;;;;;;;6.70;99.90;;;;;;2080938;28;19932;-72
2022/01/22 05:31:41;;;;;;;;;;;6.80;99.90;;;;;;2077954;28;20345;-72
2022/01/22 05:37:51;;;;;;;;;;;6.80;99.90;;;;;;2078634;28;19952;-72
2022/01/22 05:38:51;;;;;;;;;;;6.70;99.90;;;;;;2081445;28;19913;-72
2022/01/22 05:39:52;;;;;;;;;;;6.70;99.90;;;;;;2081434;28;19909;-72
2022/01/22 05:40:52;;;;;;;;;;;6.70;99.90;;;;;;2080307;28;20011;-72
2022/01/22 05:41:53;;;;;;;;;;;6.80;99.90;;;;;;2078411;28;19913;-72
2022/01/22 05:42:53;;;;;;;;;;;6.80;99.90;;;;;;2079276;28;19913;-72
2022/01/22 05:43:54;;;;;;;;;;;6.70;99.90;;;;;;2076165;28;19914;-72
2022/01/22 05:44:54;;;;;;;;;;;6.80;99.90;;;;;;2075311;28;20301;-72
2022/01/22 05:45:55;;;;;;;;;;;6.80;99.90;;;;;;2079554;28;19909;-72
2022/01/22 05:46:58;;;;;;;;;;;6.80;99.90;;;;;;2075148;28;20368;-72
2022/01/22 05:47:59;;;;;;;;;;;6.80;99.90;;;;;;2080211;28;19937;-72
2022/01/22 05:48:59;;;;;;;;;;;6.80;99.90;;;;;;2081714;28;20384;-72
2022/01/22 05:50:04;;;;;;;;;;;6.80;99.90;;;;;;2080766;28;19909;-72
2022/01/22 05:51:06;;;;;;;;;;;6.80;99.90;;;;;;2081250;28;19917;-72
2022/01/22 05:52:08;;;;;;;;;;;6.80;99.90;;;;;;2084615;28;19921;-72
2022/01/22 05:53:19;;;;;;;;;;;6.80;99.90;;;;;;2080611;28;20052;-72
2022/01/22 05:59:49;;;;;;;;;;;6.80;99.90;;;;;;2076208;28;19960;-72
2022/01/22 06:00:25;;;;;;;;;;;6.80;99.90;;;;;;2081399;28;19916;-72
2022/01/22 06:01:25;;;;;;;;;;;6.90;99.90;;;;;;2077113;28;21564;-72
2022/01/22 06:02:26;;;;;;;;;;;6.80;99.90;;;;;;2080467;28;20373;-72
2022/01/22 06:03:26;;;;;;;;;;;6.80;99.90;;;;;;2082806;28;19921;-72
2022/01/22 06:04:27;;;;;;;;;;;6.80;99.90;;;;;;2079665;28;19909;-72
2022/01/22 06:05:27;;;;;;;;;;;6.80;99.90;;;;;;2077305;28;20354;-72
2022/01/22 06:06:28;;;;;;;;;;;6.80;99.90;;;;;;2077019;28;19928;-72
2022/01/22 06:07:28;;;;;;;;;;;6.80;99.90;;;;;;2080449;28;19921;-72
2022/01/22 06:08:31;;;;;;;;;;;6.90;99.90;;;;;;2081856;28;20369;-72
2022/01/22 06:09:33;;;;;;;;;;;6.90;99.90;;;;;;2081060;28;19916;-72
2022/01/22 06:10:34;;;;;;;;;;;6.80;99.90;;;;;;2081391;28;19967;-72
2022/01/22 06:11:50;;;;;;;;;;;6.90;99.90;;;;;;2078012;28;19962;-72
2022/01/22 06:13:52;;;;;;;;;;;6.90;99.90;;;;;;2080234;28;19921;-72
2022/01/22 06:14:52;;;;;;;;;;;6.90;99.90;;;;;;2079544;28;19913;-72
2022/01/22 06:15:53;;;;;;;;;;;6.90;99.90;;;;;;2081242;28;19967;-72
2022/01/22 06:16:53;;;;;;;;;;;6.90;99.90;;;;;;2083816;28;19916;-72
2022/01/22 06:17:53;;;;;;;;;;;6.90;99.90;;;;;;2076037;28;19910;-72
2022/01/22 06:18:54;;;;;;;;;;;6.90;99.90;;;;;;2077429;28;19913;-72
2022/01/22 06:19:54;;;;;;;;;;;6.90;99.90;;;;;;2080742;28;19913;-72
2022/01/22 06:20:55;;;;;;;;;;;6.90;99.90;;;;;;2081198;28;19913;-72
2022/01/22 06:21:56;;;;;;;;;;;6.90;99.90;;;;;;2080992;28;20426;-72
2022/01/22 06:22:56;;;;;;;;;;;6.90;99.90;;;;;;2079518;28;19971;-72
2022/01/22 06:23:56;;;;;;;;;;;6.90;99.90;;;;;;2081130;28;20353;-72
2022/01/22 06:24:57;;;;;;;;;;;6.90;99.90;;;;;;2077224;28;19964;-72
2022/01/22 06:26:00;;;;;;;;;;;6.90;99.90;;;;;;2080988;28;19913;-72
2022/01/22 06:27:01;;;;;;;;;;;6.90;99.90;;;;;;2079083;28;19932;-72
2022/01/22 06:28:01;;;;;;;;;;;6.90;99.90;;;;;;2079471;28;19913;-72
2022/01/22 06:29:03;;;;;;;;;;;6.90;99.90;;;;;;2079726;28;20350;-72
2022/01/22 06:30:03;;;;;;;;;;;7.00;99.90;;;;;;2079092;28;19920;-72
2022/01/22 06:31:04;;;;;;;;;;;7.00;99.90;;;;;;2076678;28;19913;-73
2022/01/22 06:32:05;;;;;;;;;;;7.00;99.90;;;;;;2080082;28;19909;-72
2022/01/22 06:33:05;;;;;;;;;;;7.00;99.90;;;;;;2075997;28;19913;-72
2022/01/22 06:34:06;;;;;;;;;;;7.00;99.90;;;;;;2082361;28;19917;-72
2022/01/22 06:35:07;;;;;;;;;;;7.00;99.90;;;;;;2078691;28;20320;-72
2022/01/22 06:36:07;;;;;;;;;;;7.00;99.90;;;;;;2082456;28;20365;-72
2022/01/22 06:37:07;;;;;;;;;;;7.00;99.90;;;;;;2082102;28;19914;-72
2022/01/22 06:38:09;;;;;;;;;;;7.00;99.90;;;;;;2077296;28;19910;-72
2022/01/22 06:39:15;;;;;;;;;;;7.00;99.90;;;;;;2081417;28;20334;-72
2022/01/22 06:42:35;;;;;;;;;;;7.00;99.90;;;;;;2077930;28;19996;-72
2022/01/22 06:43:35;;;;;;;;;;;7.00;99.90;;;;;;2081580;28;19913;-72
2022/01/22 06:44:37;;;;;;;;;;;7.00;99.90;;;;;;2078072;28;20005;-72
2022/01/22 06:45:40;;;;;;;;;;;7.00;99.90;;;;;;2077098;28;19909;-72
2022/01/22 06:46:42;;;;;;;;;;;7.00;99.90;;;;;;2076196;28;20011;-72
2022/01/22 06:47:42;;;;;;;;;;;7.00;99.90;;;;;;2077782;28;19936;-72
2022/01/22 06:48:42;;;;;;;;;;;7.00;99.90;;;;;;2078030;28;19956;-72
2022/01/22 06:49:43;;;;;;;;;;;7.00;99.90;;;;;;2081342;28;19915;-72
2022/01/22 06:50:43;;;;;;;;;;;7.00;99.90;;;;;;2079500;28;19909;-72
2022/01/22 06:51:44;;;;;;;;;;;7.00;99.90;;;;;;2079183;28;19948;-71
2022/01/22 06:52:45;;;;;;;;;;;7.00;99.90;;;;;;2081753;28;19954;-72
2022/01/22 06:53:45;;;;;;;;;;;7.00;99.90;;;;;;2079062;28;19993;-72
2022/01/22 06:54:46;;;;;;;;;;;7.00;99.90;;;;;;2076692;28;19917;-72
2022/01/22 06:55:55;;;;;;;;;;;7.00;99.90;;;;;;2077039;28;20366;-72
2022/01/22 06:56:56;;;;;;;;;;;7.00;99.90;;;;;;2077611;28;19924;-72
2022/01/22 06:57:56;;;;;;;;;;;7.00;99.90;;;;;;2081085;28;20003;-72
2022/01/22 06:58:57;;;;;;;;;;;7.00;99.90;;;;;;2076235;28;20388;-72
2022/01/22 06:59:58;;;;;;;;;;;7.00;99.90;;;;;;2076777;28;19913;-72
2022/01/22 07:00:59;;;;;;;;;;;7.00;99.90;;;;;;2075889;28;19933;-72
2022/01/22 07:01:59;;;;;;;;;;;7.00;99.90;;;;;;2077095;28;19909;-72
2022/01/22 07:03:01;;;;;;;;;;;7.00;99.90;;;;;;2084159;28;20329;-72
2022/01/22 07:04:02;;;;;;;;;;;7.00;99.90;;;;;;2088411;28;20404;-72
2022/01/22 07:05:02;;;;;;;;;;;7.00;99.90;;;;;;2079886;28;20246;-72
2022/01/22 07:06:02;;;;;;;;;;;7.00;99.90;;;;;;2078610;28;20288;-72
2022/01/22 07:07:05;;;;;;;;;;;7.00;99.90;;;;;;2076814;28;20148;-72
2022/01/22 07:08:06;;;;;;;;;;;7.00;99.90;;;;;;2075305;28;19910;-72
2022/01/22 07:09:06;;;;;;;;;;;7.00;99.90;;;;;;2075250;28;19917;-72
2022/01/22 07:10:07;;;;;;;;;;;7.00;99.90;;;;;;2075755;28;20012;-72
2022/01/22 07:11:07;;;;;;;;;;;7.00;99.90;;;;;;2083437;28;20434;-72
2022/01/22 07:12:08;;;;;;;;;;;7.00;99.90;;;;;;2087909;28;20010;-72
2022/01/22 07:13:08;;;;;;;;;;;7.00;99.90;;;;;;2080673;28;20018;-72
2022/01/22 07:14:09;;;;;;;;;;;7.00;99.90;;;;;;2081062;28;20285;-72
2022/01/22 07:15:09;;;;;;;;;;;7.00;99.90;;;;;;2080471;28;19913;-72
2022/01/22 07:16:10;;;;;;;;;;;7.00;99.90;;;;;;2080776;28;19919;-72
2022/01/22 07:17:12;;;;;;;;;;;7.00;99.90;;;;;;2083748;28;19925;-72
2022/01/22 07:18:13;;;;;;;;;;;7.00;99.90;;;;;;2085603;28;19913;-72
2022/01/22 07:19:18;;;;;;;;;;;7.00;99.90;;;;;;2080332;28;19913;-72
2022/01/22 07:20:26;;;;;;;;;;;7.00;99.90;;;;;;2080054;28;20009;-72
2022/01/22 07:21:29;;;;;;;;;;;7.10;99.90;;;;;;2081041;28;19917;-72
2022/01/22 07:22:47;;;;;;;;;;;7.10;99.90;;;;;;2080333;28;20008;-72
2022/01/22 07:24:48;;;;;;;;;;;7.10;99.90;;;;;;2075453;28;19909;-72
2022/01/22 07:25:48;;;;;;;;;;;7.10;99.90;;;;;;2077730;28;19913;-73
2022/01/22 07:26:49;;;;;;;;;;;7.10;99.90;;;;;;2076751;28;20301;-72
2022/01/22 07:27:50;;;;;;;;;;;7.10;99.90;;;;;;2080450;28;20381;-72
2022/01/22 07:28:50;;;;;;;;;;;7.10;99.90;;;;;;2080875;28;20249;-72
2022/01/22 07:29:51;;;;;;;;;;;7.10;99.90;;;;;;2080048;28;20584;-72
2022/01/22 07:30:52;;;;;;;;;;;7.10;99.90;;;;;;2079760;28;20012;-72
2022/01/22 07:31:53;;;;;;;;;;;7.10;99.90;;;;;;2076363;28;19909;-72
2022/01/22 07:32:54;;;;;;;;;;;7.10;99.90;;;;;;2078570;28;19913;-72
2022/01/22 07:33:54;;;;;;;;;;;7.10;99.90;;;;;;2080666;28;20004;-72
2022/01/22 07:34:55;;;;;;;;;;;7.10;99.90;;;;;;2080700;28;19967;-72
2022/01/22 07:35:55;;;;;;;;;;;7.10;99.90;;;;;;2080803;28;19917;-72